Time;durP1;ratioP1;P1;durP2;ratioP2;P2;SDS_P1;SDS_P2;PMS_P1;PMS_P2;Temp;Humidity;BMP_temperature;BMP_pressure;BME280_temperature;BME280_humidity;BME280_pressure;Samples;Min_cycle;Max_cycle;Signal;HPM_P1;HPM_P2
2023/07/27 00:00:08;;;;;;;4.50;2.03;;;;;;;;;;5013286;28;20493;-72
2023/07/27 00:02:35;;;;;;;2.80;1.92;;;;;;;;;;5013939;28;20048;-72
2023/07/27 00:05:01;;;;;;;3.50;1.98;;;;;;;;;;5013659;28;20470;-72
2023/07/27 00:07:27;;;;;;;2.97;2.08;;;;;;;;;;5013176;28;20014;-72
2023/07/27 00:09:53;;;;;;;3.08;2.10;;;;;;;;;;5013615;28;20018;-71
2023/07/27 00:12:19;;;;;;;2.58;2.10;;;;;;;;;;5013623;28;20029;-72
2023/07/27 00:14:45;;;;;;;4.55;2.10;;;;;;;;;;5013334;28;20022;-72
2023/07/27 00:17:11;;;;;;;2.90;2.10;;;;;;;;;;5013162;28;20029;-72
2023/07/27 00:19:37;;;;;;;3.45;2.22;;;;;;;;;;5013685;28;20105;-72
2023/07/27 00:22:03;;;;;;;3.50;1.92;;;;;;;;;;5013224;28;20036;-72
2023/07/27 00:24:29;;;;;;;2.25;1.60;;;;;;;;;;5013482;28;20029;-72
2023/07/27 00:26:55;;;;;;;2.78;1.77;;;;;;;;;;5012960;28;20044;-71
2023/07/27 00:29:21;;;;;;;3.50;2.35;;;;;;;;;;5012843;28;20022;-72
2023/07/27 00:31:47;;;;;;;3.10;2.03;;;;;;;;;;5013165;28;20017;-71
2023/07/27 00:34:13;;;;;;;3.25;1.80;;;;;;;;;;5013097;28;20033;-71
2023/07/27 00:36:39;;;;;;;4.07;2.25;;;;;;;;;;5011520;28;20508;-70
2023/07/27 00:39:05;;;;;;;3.65;1.92;;;;;;;;;;5013404;28;20030;-71
2023/07/27 00:41:31;;;;;;;2.22;1.92;;;;;;;;;;5012911;28;20454;-71
2023/07/27 00:43:57;;;;;;;3.10;2.13;;;;;;;;;;5013588;28;20517;-71
2023/07/27 00:46:23;;;;;;;3.47;2.78;;;;;;;;;;5014575;28;20029;-71
2023/07/27 00:48:49;;;;;;;4.28;2.70;;;;;;;;;;5013212;28;20022;-71
2023/07/27 00:51:15;;;;;;;3.63;2.42;;;;;;;;;;5012608;28;20482;-71
2023/07/27 00:53:41;;;;;;;2.08;1.88;;;;;;;;;;5012748;28;20045;-71
2023/07/27 00:56:07;;;;;;;4.18;2.58;;;;;;;;;;5012437;28;20492;-71
2023/07/27 00:58:34;;;;;;;2.08;1.70;;;;;;;;;;5012360;28;20030;-71
2023/07/27 01:01:02;;;;;;;3.08;2.30;;;;;;;;;;5012394;28;20095;-70
2023/07/27 01:03:28;;;;;;;3.78;2.05;;;;;;;;;;5012733;28;20033;-71
2023/07/27 01:05:55;;;;;;;3.67;2.28;;;;;;;;;;5012666;28;20389;-69
2023/07/27 01:08:21;;;;;;;2.28;1.90;;;;;;;;;;5012190;28;20101;-70
2023/07/27 01:10:47;;;;;;;2.42;2.20;;;;;;;;;;5012177;28;20386;-71
2023/07/27 01:13:42;;;;;;;3.80;2.28;;;;;;;;;;5011493;28;20030;-69
2023/07/27 01:16:19;;;;;;;2.75;2.00;;;;;;;;;;5003214;28;20033;-71
2023/07/27 01:18:55;;;;;;;2.65;2.20;;;;;;;;;;5012025;28;20056;-70
2023/07/27 01:21:24;;;;;;;3.42;2.42;;;;;;;;;;5011939;28;20033;-70
2023/07/27 01:24:08;;;;;;;2.95;2.40;;;;;;;;;;5012090;28;20106;-70
2023/07/27 01:26:53;;;;;;;2.72;2.45;;;;;;;;;;5011714;28;20048;-69
2023/07/27 01:29:38;;;;;;;5.63;2.28;;;;;;;;;;5004048;28;20029;-70
2023/07/27 01:32:05;;;;;;;1.95;1.83;;;;;;;;;;5010844;28;20036;-70
2023/07/27 01:34:32;;;;;;;4.75;2.20;;;;;;;;;;5012175;28;20076;-71
2023/07/27 01:37:02;;;;;;;3.72;2.65;;;;;;;;;;5011808;28;20481;-70
2023/07/27 01:39:29;;;;;;;3.63;2.25;;;;;;;;;;5011928;28;20469;-70
2023/07/27 01:41:56;;;;;;;3.38;2.13;;;;;;;;;;5012073;28;20064;-70
2023/07/27 01:44:25;;;;;;;3.60;2.33;;;;;;;;;;5012131;28;20025;-71
2023/07/27 01:46:52;;;;;;;2.92;2.05;;;;;;;;;;5011735;28;20038;-70
2023/07/27 01:49:19;;;;;;;2.70;1.90;;;;;;;;;;5011997;28;20025;-70
2023/07/27 01:51:46;;;;;;;5.07;2.67;;;;;;;;;;5008980;28;20022;-70
2023/07/27 01:54:13;;;;;;;4.55;2.33;;;;;;;;;;5011359;28;20548;-71
2023/07/27 01:56:39;;;;;;;4.45;2.08;;;;;;;;;;5011540;28;20030;-70
2023/07/27 01:59:07;;;;;;;3.22;2.60;;;;;;;;;;5010447;28;20088;-70
2023/07/27 02:01:33;;;;;;;2.90;2.00;;;;;;;;;;5011021;28;20102;-70
2023/07/27 02:03:59;;;;;;;3.72;2.47;;;;;;;;;;5011236;28;20038;-70
2023/07/27 02:06:26;;;;;;;3.30;2.67;;;;;;;;;;5011175;28;20486;-70
2023/07/27 02:08:52;;;;;;;5.55;2.85;;;;;;;;;;5011303;28;20014;-71
2023/07/27 02:11:19;;;;;;;2.65;2.33;;;;;;;;;;5009155;28;20540;-70
2023/07/27 02:13:48;;;;;;;4.55;2.88;;;;;;;;;;5011800;28;20026;-71
2023/07/27 02:16:21;;;;;;;5.28;2.70;;;;;;;;;;5011439;28;20032;-71
2023/07/27 02:18:48;;;;;;;3.33;2.50;;;;;;;;;;5011240;28;20018;-71
2023/07/27 02:21:15;;;;;;;3.30;2.47;;;;;;;;;;5011260;28;20026;-71
2023/07/27 02:23:41;;;;;;;3.38;2.40;;;;;;;;;;5011293;28;20077;-71
2023/07/27 02:26:07;;;;;;;2.75;2.40;;;;;;;;;;5011106;28;20026;-71
2023/07/27 02:28:34;;;;;;;4.97;2.60;;;;;;;;;;5011238;28;20022;-71
2023/07/27 02:31:00;;;;;;;3.88;2.85;;;;;;;;;;5011415;28;20560;-70
2023/07/27 02:33:26;;;;;;;4.15;2.72;;;;;;;;;;5011376;28;20018;-71
2023/07/27 02:35:53;;;;;;;4.35;3.08;;;;;;;;;;5011209;28;20014;-71
2023/07/27 02:38:19;;;;;;;6.60;3.25;;;;;;;;;;5010858;28;20026;-70
2023/07/27 02:40:45;;;;;;;4.32;2.55;;;;;;;;;;5009946;28;20076;-71
2023/07/27 02:43:11;;;;;;;5.38;2.92;;;;;;;;;;5011153;28;20044;-71
2023/07/27 02:45:37;;;;;;;6.82;3.55;;;;;;;;;;5011111;28;20378;-71
2023/07/27 02:48:03;;;;;;;4.47;2.63;;;;;;;;;;5010678;28;20037;-70
2023/07/27 02:50:29;;;;;;;3.38;2.80;;;;;;;;;;5010942;28;20079;-71
2023/07/27 02:52:55;;;;;;;3.58;2.67;;;;;;;;;;5011216;28;20014;-70
2023/07/27 02:55:21;;;;;;;3.38;2.90;;;;;;;;;;5011074;28;20026;-70
2023/07/27 02:57:47;;;;;;;4.32;3.13;;;;;;;;;;5010909;28;20550;-71
2023/07/27 03:00:13;;;;;;;4.85;3.25;;;;;;;;;;5011418;28;20022;-70
2023/07/27 03:02:39;;;;;;;4.50;2.80;;;;;;;;;;5011295;28;20030;-72
2023/07/27 03:05:05;;;;;;;3.95;3.08;;;;;;;;;;5011203;28;20026;-70
2023/07/27 03:07:32;;;;;;;4.57;2.88;;;;;;;;;;5010863;28;20034;-70
2023/07/27 03:09:58;;;;;;;6.18;3.42;;;;;;;;;;5011127;28;20113;-70
2023/07/27 03:12:24;;;;;;;4.53;3.38;;;;;;;;;;5012200;28;20438;-70
2023/07/27 03:14:50;;;;;;;3.80;2.70;;;;;;;;;;5014916;28;20101;-71
2023/07/27 03:17:16;;;;;;;4.28;3.10;;;;;;;;;;5014678;28;20101;-71
2023/07/27 03:19:42;;;;;;;4.15;2.70;;;;;;;;;;5014727;28;20075;-71
2023/07/27 03:22:08;;;;;;;3.67;2.65;;;;;;;;;;5014424;28;20026;-71
2023/07/27 03:24:34;;;;;;;5.50;3.00;;;;;;;;;;5014402;28;20030;-70
2023/07/27 03:27:00;;;;;;;3.45;2.63;;;;;;;;;;5013927;28;20489;-70
2023/07/27 03:29:26;;;;;;;3.30;2.90;;;;;;;;;;5014337;28;20025;-70
2023/07/27 03:31:52;;;;;;;4.43;2.97;;;;;;;;;;5014376;28;20022;-70
2023/07/27 03:34:18;;;;;;;5.68;3.00;;;;;;;;;;5014437;28;20026;-70
2023/07/27 03:36:45;;;;;;;5.07;2.92;;;;;;;;;;5013981;28;20018;-69
2023/07/27 03:39:11;;;;;;;6.57;3.33;;;;;;;;;;5014075;28;20034;-70
2023/07/27 03:41:37;;;;;;;3.78;2.80;;;;;;;;;;5011522;28;20125;-69
2023/07/27 03:44:03;;;;;;;4.97;3.28;;;;;;;;;;5011739;28;20501;-69
2023/07/27 03:46:29;;;;;;;3.80;2.90;;;;;;;;;;5014022;28;20033;-69
2023/07/27 03:48:55;;;;;;;4.13;2.63;;;;;;;;;;5013496;28;20450;-69
2023/07/27 03:51:21;;;;;;;5.38;3.20;;;;;;;;;;5013791;28;20068;-71
2023/07/27 03:53:47;;;;;;;4.40;3.38;;;;;;;;;;5014008;28;20022;-71
2023/07/27 03:56:13;;;;;;;4.13;3.00;;;;;;;;;;5012316;28;20481;-71
2023/07/27 03:58:39;;;;;;;4.88;2.60;;;;;;;;;;5012572;28;20076;-70
2023/07/27 04:01:06;;;;;;;6.03;2.65;;;;;;;;;;5013290;28;20025;-70
2023/07/27 04:03:32;;;;;;;5.88;2.90;;;;;;;;;;5015481;28;20030;-70
2023/07/27 04:05:58;;;;;;;7.40;2.47;;;;;;;;;;5021581;28;20057;-70
2023/07/27 04:08:24;;;;;;;2.78;2.40;;;;;;;;;;5031973;28;20025;-71
2023/07/27 04:10:51;;;;;;;4.55;2.85;;;;;;;;;;5029856;28;20010;-71
2023/07/27 04:13:17;;;;;;;3.50;2.95;;;;;;;;;;5028441;28;20110;-69
2023/07/27 04:15:45;;;;;;;3.85;3.00;;;;;;;;;;5029176;28;20026;-71
2023/07/27 04:18:11;;;;;;;5.63;2.20;;;;;;;;;;5028595;28;20041;-71
2023/07/27 04:20:37;;;;;;;7.45;2.85;;;;;;;;;;5029540;28;20026;-71
2023/07/27 04:23:03;;;;;;;3.88;2.15;;;;;;;;;;5027334;28;20034;-70
2023/07/27 04:25:29;;;;;;;2.65;2.00;;;;;;;;;;5026225;28;20026;-71
2023/07/27 04:27:55;;;;;;;3.05;2.22;;;;;;;;;;5026459;28;20022;-71
2023/07/27 04:30:21;;;;;;;3.28;1.88;;;;;;;;;;5028563;28;20034;-71
2023/07/27 04:32:48;;;;;;;3.40;2.03;;;;;;;;;;5028452;28;20018;-71
2023/07/27 04:35:14;;;;;;;2.78;1.70;;;;;;;;;;5028979;28;20121;-71
2023/07/27 04:37:39;;;;;;;4.30;2.53;;;;;;;;;;5034516;28;20055;-71
2023/07/27 04:40:06;;;;;;;2.78;2.10;;;;;;;;;;5017378;28;20444;-69
2023/07/27 04:42:31;;;;;;;2.70;1.85;;;22.40;48.40;;;;;;5014148;28;20022;-71
2023/07/27 04:44:57;;;;;;;3.20;2.00;;;22.50;48.20;;;;;;5013678;28;20083;-69
2023/07/27 04:47:23;;;;;;;5.47;2.20;;;23.20;45.90;;;;;;5013117;28;20071;-70
2023/07/27 04:49:48;;;;;;;2.78;1.83;;;23.60;45.50;;;;;;5012886;28;20037;-70
2023/07/27 04:52:14;;;;;;;2.13;1.90;;;24.00;44.50;;;;;;5013110;28;20026;-70
2023/07/27 04:54:40;;;;;;;3.25;1.90;;;24.20;42.90;;;;;;5013627;28;20018;-71
2023/07/27 04:57:05;;;;;;;2.03;1.65;;;24.00;44.10;;;;;;5012748;28;20033;-68
2023/07/27 04:59:31;;;;;;;2.40;1.80;;;24.60;42.80;;;;;;5012473;28;20087;-70
2023/07/27 05:01:56;;;;;;;2.03;1.55;;;25.00;42.10;;;;;;5012568;28;20093;-70
2023/07/27 05:04:22;;;;;;;3.85;1.95;;;25.50;41.20;;;;;;5013023;28;20032;-71
2023/07/27 05:06:48;;;;;;;2.63;1.73;;;26.10;39.60;;;;;;5012444;28;20493;-71
2023/07/27 05:09:14;;;;;;;8.48;2.42;;;26.40;38.90;;;;;;5012061;28;20022;-71
2023/07/27 05:11:39;;;;;;;4.15;1.55;;;26.60;38.60;;;;;;5012723;28;20029;-71
2023/07/27 05:14:05;;;;;;;2.35;1.60;;;26.70;38.00;;;;;;5012599;28;20017;-70
2023/07/27 05:16:31;;;;;;;2.80;1.88;;;27.30;37.50;;;;;;5012414;28;20068;-70
2023/07/27 05:18:57;;;;;;;2.53;1.48;;;27.60;36.60;;;;;;5012149;28;20493;-70
2023/07/27 05:21:23;;;;;;;3.95;1.80;;;27.40;36.50;;;;;;5013103;28;20101;-69
2023/07/27 05:23:49;;;;;;;2.72;1.77;;;27.40;36.90;;;;;;5009713;28;20117;-71
2023/07/27 05:26:15;;;;;;;2.25;1.58;;;27.10;36.90;;;;;;5011462;28;20080;-71
2023/07/27 05:28:40;;;;;;;4.30;1.50;;;26.50;38.40;;;;;;5011822;28;20076;-71
2023/07/27 05:31:07;;;;;;;2.70;1.80;;;26.50;38.30;;;;;;5009212;28;20030;-70
2023/07/27 05:33:33;;;;;;;3.20;1.90;;;26.00;39.00;;;;;;5011867;28;20025;-70
2023/07/27 05:35:58;;;;;;;3.00;1.73;;;25.80;39.40;;;;;;5009505;28;20026;-70
2023/07/27 05:38:24;;;;;;;4.75;1.55;;;26.00;39.50;;;;;;5010281;28;20026;-70
2023/07/27 05:40:50;;;;;;;3.33;1.40;;;27.30;37.70;;;;;;5008733;28;20076;-70
2023/07/27 05:43:15;;;;;;;1.42;1.33;;;27.90;36.60;;;;;;5009381;28;20038;-70
2023/07/27 05:45:41;;;;;;;3.42;1.63;;;28.50;35.10;;;;;;5009502;28;20033;-69
2023/07/27 05:48:07;;;;;;;2.35;1.38;;;29.00;34.70;;;;;;5011440;28;20029;-69
2023/07/27 05:50:34;;;;;;;3.83;1.80;;;29.60;33.20;;;;;;5011487;28;20101;-69
2023/07/27 05:52:59;;;;;;;3.95;1.80;;;30.00;32.90;;;;;;5011942;28;20025;-69
2023/07/27 05:55:25;;;;;;;3.60;1.70;;;30.40;32.60;;;;;;5011711;28;20088;-69
2023/07/27 05:57:51;;;;;;;2.80;1.40;;;29.70;32.50;;;;;;5011775;28;20026;-70
2023/07/27 06:00:17;;;;;;;4.07;1.55;;;29.40;33.00;;;;;;5009296;28;20026;-69
2023/07/27 06:02:42;;;;;;;3.22;1.67;;;29.70;33.10;;;;;;5009158;28;20097;-69
2023/07/27 06:05:08;;;;;;;4.82;2.00;;;;;;;;;;5008672;28;20474;-71
2023/07/27 06:07:34;;;;;;;2.78;1.50;;;;;;;;;;5010219;28;20079;-71
2023/07/27 06:10:00;;;;;;;2.65;1.63;;;;;;;;;;5009929;28;20026;-68
2023/07/27 06:12:26;;;;;;;2.60;1.88;;;;;;;;;;5010222;28;20022;-70
2023/07/27 06:14:52;;;;;;;4.45;2.15;;;;;;;;;;5010772;28;20385;-70
2023/07/27 06:17:18;;;;;;;3.28;1.50;;;;;;;;;;5010220;28;20026;-71
2023/07/27 06:19:44;;;;;;;2.05;1.63;;;;;;;;;;5011155;28;20022;-71
2023/07/27 06:22:10;;;;;;;2.10;1.63;;;;;;;;;;5011015;28;20095;-71
2023/07/27 06:24:36;;;;;;;4.45;1.30;;;;;;;;;;5011262;28;20022;-71
2023/07/27 06:27:03;;;;;;;4.70;1.77;;;;;;;;;;5010789;28;20033;-71
2023/07/27 06:29:29;;;;;;;5.28;1.60;;;;;;;;;;5011133;28;20022;-70
2023/07/27 06:31:55;;;;;;;1.58;1.48;;;;;;;;;;5010987;28;20028;-69
2023/07/27 06:34:20;;;;;;;5.32;1.85;;;;;;;;;;5010720;28;20029;-68
2023/07/27 06:36:47;;;;;;;1.77;1.20;;;;;;;;;;5009600;28;20029;-69
2023/07/27 06:39:13;;;;;;;2.58;1.63;;;;;;;;;;5009727;28;20034;-70
2023/07/27 06:41:39;;;;;;;2.33;1.52;;;;;;;;;;5011113;28;20025;-70
2023/07/27 06:44:05;;;;;;;4.57;2.00;;;;;;;;;;5010897;28;20112;-71
2023/07/27 06:46:31;;;;;;;3.20;1.52;;;;;;;;;;5011539;28;20108;-69
2023/07/27 06:48:58;;;;;;;3.53;1.80;;;;;;;;;;5013852;28;20046;-69
2023/07/27 06:51:24;;;;;;;3.75;1.83;;;;;;;;;;5014146;28;20494;-70
2023/07/27 06:53:50;;;;;;;2.60;1.70;;;;;;;;;;5014076;28;20049;-70
2023/07/27 06:56:18;;;;;;;2.83;1.60;;;;;;;;;;5013820;28;20033;-69
2023/07/27 06:58:44;;;;;;;8.70;1.95;;;;;;;;;;5013528;28;20021;-70
2023/07/27 07:01:10;;;;;;;2.63;1.88;;;;;;;;;;5014155;28;20397;-70
2023/07/27 07:03:36;;;;;;;10.23;2.10;;;;;;;;;;5015422;28;20046;-70
2023/07/27 07:06:02;;;;;;;4.88;1.60;;;;;;;;;;5014672;28;20080;-70
2023/07/27 07:08:29;;;;;;;3.08;1.98;;;;;;;;;;5014154;28;20053;-70
2023/07/27 07:10:55;;;;;;;3.25;2.00;;;;;;;;;;5013096;28;20061;-70
2023/07/27 07:13:21;;;;;;;2.30;1.80;;;;;;;;;;5013125;28;20109;-70
2023/07/27 07:15:48;;;;;;;3.22;1.98;;;;;;;;;;5014414;28;20025;-71
2023/07/27 07:18:14;;;;;;;3.45;2.33;;;;;;;;;;5013901;28;20025;-70
2023/07/27 07:20:41;;;;;;;2.13;1.73;;;;;;;;;;5014522;28;20049;-70
2023/07/27 07:23:07;;;;;;;2.10;1.52;;;;;;;;;;5013247;28;20721;-70
2023/07/27 07:25:33;;;;;;;2.40;1.95;;;;;;;;;;5014167;28;20022;-71
2023/07/27 07:27:59;;;;;;;2.03;1.83;;;;;;;;;;5013643;28;20121;-70
2023/07/27 07:30:25;;;;;;;3.40;2.50;;;;;;;;;;5013780;28;20060;-71
2023/07/27 07:32:51;;;;;;;2.25;1.52;;;;;;;;;;5014212;28;20501;-71
2023/07/27 07:35:18;;;;;;;4.28;1.90;;;;;;;;;;5013973;28;20029;-71
2023/07/27 07:37:44;;;;;;;4.43;1.70;;;;;;;;;;5012382;28;20033;-71
2023/07/27 07:40:10;;;;;;;5.47;1.90;;;;;;;;;;5013885;28;20501;-71
2023/07/27 07:42:37;;;;;;;2.67;1.70;;;;;;;;;;5014146;28;20413;-70
2023/07/27 07:45:03;;;;;;;1.95;1.70;;;;;;;;;;5013615;28;20058;-71
2023/07/27 07:47:29;;;;;;;2.80;1.98;;;;;;;;;;5013393;28;20057;-71
2023/07/27 07:49:55;;;;;;;2.67;2.00;;;;;;;;;;5013496;28;20390;-71
2023/07/27 07:52:21;;;;;;;3.15;1.85;;;;;;;;;;5013755;28;20018;-71
2023/07/27 07:54:47;;;;;;;2.17;1.70;;;;;;;;;;5013597;28;20038;-70
2023/07/27 07:57:13;;;;;;;5.90;2.05;;;;;;;;;;5012956;28;20484;-70
2023/07/27 07:59:39;;;;;;;3.47;2.40;;;;;;;;;;5013119;28;20036;-70
2023/07/27 08:02:06;;;;;;;2.55;2.15;;;;;;;;;;5011947;28;20118;-71
2023/07/27 08:04:32;;;;;;;2.97;1.90;;;;;;;;;;5013421;28;20503;-71
2023/07/27 08:06:58;;;;;;;3.85;1.77;;;;;;;;;;5012960;28;20033;-70
2023/07/27 08:09:24;;;;;;;2.65;1.83;;;;;;;;;;5013046;28;20049;-69
2023/07/27 08:11:52;;;;;;;3.25;1.75;;;;;;;;;;5013290;28;20017;-70
2023/07/27 08:14:18;;;;;;;3.83;2.13;;;;;;;;;;5013118;28;20022;-70
2023/07/27 08:16:44;;;;;;;4.07;2.33;;;;;;;;;;5013051;28;20018;-70
2023/07/27 08:19:10;;;;;;;2.47;1.80;;;;;;;;;;5012795;28;20026;-70
2023/07/27 08:21:36;;;;;;;3.28;2.30;;;;;;;;;;5013286;28;20385;-70
2023/07/27 08:24:02;;;;;;;2.47;2.10;;;;;;;;;;5012950;28;20041;-69
2023/07/27 08:26:29;;;;;;;3.25;1.88;;;;;;;;;;5013013;28;20025;-70
2023/07/27 08:28:55;;;;;;;7.72;1.80;;;;;;;;;;5012616;28;20409;-70
2023/07/27 08:31:21;;;;;;;3.70;2.00;;;;;;;;;;5012855;28;20079;-70
2023/07/27 08:33:47;;;;;;;2.92;2.38;;;;;;;;;;5013059;28;20450;-70
2023/07/27 08:36:13;;;;;;;4.97;2.17;;;;;;;;;;5012979;28;20071;-71
2023/07/27 08:38:40;;;;;;;3.13;2.13;;;;;;;;;;5012348;28;20030;-70
2023/07/27 08:41:06;;;;;;;2.85;1.67;;;;;;;;;;5012555;28;20030;-70
2023/07/27 08:43:32;;;;;;;3.88;1.77;;;;;;;;;;5012363;28;20445;-68
2023/07/27 08:45:59;;;;;;;4.60;1.90;;;;;;;;;;5012810;28;20033;-70
2023/07/27 08:48:25;;;;;;;5.20;2.42;;;;;;;;;;5012314;28;20109;-70
2023/07/27 08:50:52;;;;;;;3.25;1.92;;;;;;;;;;5012747;28;20026;-71
2023/07/27 08:53:18;;;;;;;3.92;1.80;;;;;;;;;;5012565;28;20077;-71
2023/07/27 08:55:46;;;;;;;3.63;2.08;;;;;;;;;;5012303;28;20022;-71
2023/07/27 08:58:12;;;;;;;2.25;1.88;;;;;;;;;;5010845;28;20022;-70
2023/07/27 09:00:38;;;;;;;4.07;2.20;;;;;;;;;;5010999;28;20026;-70
2023/07/27 09:03:07;;;;;;;5.80;1.70;;;;;;;;;;5012230;28;20029;-70
2023/07/27 09:05:43;;;;;;;3.47;2.00;;;;;;;;;;5005776;28;20105;-70
2023/07/27 09:08:11;;;;;;;4.30;1.70;;;;;;;;;;5010554;28;20033;-70
2023/07/27 09:10:38;;;;;;;3.75;2.28;;;;;;;;;;5010624;28;20112;-71
2023/07/27 09:13:04;;;;;;;5.70;1.70;;;;;;;;;;5011553;28;20028;-70
2023/07/27 09:15:30;;;;;;;3.03;1.98;;;;;;;;;;5010409;28;20592;-70
2023/07/27 09:18:01;;;;;;;2.38;1.42;;;;;;;;;;5010446;28;20621;-71
2023/07/27 09:20:27;;;;;;;1.88;1.70;;;;;;;;;;5010320;28;20646;-70
2023/07/27 09:22:55;;;;;;;2.67;1.65;;;;;;;;;;5010718;28;20091;-68
2023/07/27 09:25:22;;;;;;;2.70;2.10;;;;;;;;;;5010561;28;20036;-70
2023/07/27 09:27:48;;;;;;;8.57;2.30;;;;;;;;;;5010294;28;20544;-70
2023/07/27 09:30:16;;;;;;;3.25;1.90;;;;;;;;;;5011630;28;20034;-69
2023/07/27 09:32:42;;;;;;;4.18;2.35;;;;;;;;;;5012060;28;20018;-70
2023/07/27 09:35:15;;;;;;;6.38;2.58;;;;;;;;;;5011748;28;20022;-70
2023/07/27 09:37:44;;;;;;;4.22;2.35;;;;;;;;;;5012569;28;20136;-70
2023/07/27 09:40:16;;;;;;;2.78;1.65;;;;;;;;;;5010341;28;20096;-70
2023/07/27 09:42:43;;;;;;;5.40;2.00;;;;;;;;;;5012215;28;20118;-69
2023/07/27 09:45:09;;;;;;;4.32;2.17;;;;;;;;;;5010493;28;20045;-70
2023/07/27 09:47:35;;;;;;;3.90;1.80;;;;;;;;;;5011428;28;20026;-69
2023/07/27 09:50:02;;;;;;;1.88;1.70;;;;;;;;;;5010369;28;20030;-70
2023/07/27 09:52:29;;;;;;;5.13;1.70;;;;;;;;;;5011673;28;20109;-71
2023/07/27 09:54:56;;;;;;;2.42;1.92;;;;;;;;;;5011128;28;20018;-70
2023/07/27 09:57:23;;;;;;;2.97;1.70;;;;;;;;;;5011593;28;20047;-71
2023/07/27 09:59:49;;;;;;;3.42;1.92;;;;;;;;;;5012032;28;20223;-71
2023/07/27 10:02:16;;;;;;;2.95;1.88;;;;;;;;;;5016560;28;20021;-71
2023/07/27 10:04:42;;;;;;;3.42;1.98;;;;;;;;;;5015409;28;20048;-70
2023/07/27 10:07:09;;;;;;;5.25;2.17;;;;;;;;;;5020801;28;20022;-71
2023/07/27 10:09:36;;;;;;;6.22;2.42;;;;;;;;;;5023897;28;20032;-71
2023/07/27 10:12:04;;;;;;;2.72;1.90;;;;;;;;;;5024802;28;20050;-71
2023/07/27 10:14:30;;;;;;;3.72;1.70;;;;;;;;;;5024320;28;20018;-71
2023/07/27 10:16:58;;;;;;;4.30;2.05;;;;;;;;;;5021374;28;20024;-71
2023/07/27 10:19:24;;;;;;;4.95;2.00;;;;;;;;;;5011656;28;20109;-71
2023/07/27 10:21:51;;;;;;;4.60;1.70;;;;;;;;;;5020026;28;20026;-72
2023/07/27 10:24:24;;;;;;;2.42;2.08;;;;;;;;;;5022015;28;20033;-71
2023/07/27 10:26:51;;;;;;;3.50;1.70;;;;;;;;;;5021916;28;20022;-70
2023/07/27 10:29:18;;;;;;;2.85;2.15;;;;;;;;;;5022097;28;20036;-71
2023/07/27 10:31:45;;;;;;;3.10;2.03;;;;;;;;;;5023453;28;20049;-70
2023/07/27 10:34:16;;;;;;;5.93;1.70;;;;;;;;;;5020294;28;20022;-69
2023/07/27 10:36:48;;;;;;;5.78;2.17;;;;;;;;;;5017644;28;20022;-71
2023/07/27 10:39:18;;;;;;;3.63;2.35;;;;;;;;;;5018562;28;20040;-71
2023/07/27 10:42:04;;;;;;;3.08;2.05;;;;;;;;;;5016901;28;20062;-70
2023/07/27 10:44:45;;;;;;;4.07;1.80;;;;;;;;;;5015266;28;20109;-70
2023/07/27 10:47:20;;;;;;;4.65;1.88;;;;;;;;;;5015080;28;20113;-70
2023/07/27 10:49:48;;;;;;;3.00;1.80;;;;;;;;;;5015205;28;20021;-71
2023/07/27 10:52:15;;;;;;;4.63;2.42;;;;;;;;;;5015242;28;20157;-70
2023/07/27 10:54:42;;;;;;;6.10;2.03;;;;;;;;;;5015011;28;20453;-70
2023/07/27 10:57:09;;;;;;;3.33;2.08;;;;;;;;;;5014473;28;20378;-70
2023/07/27 10:59:42;;;;;;;2.58;1.95;;;;;;;;;;5015265;28;20021;-70
2023/07/27 11:02:10;;;;;;;5.22;2.38;;;;;;;;;;5014712;28;20022;-70
2023/07/27 11:04:37;;;;;;;2.35;2.00;;;;;;;;;;5013428;28;20026;-70
2023/07/27 11:07:03;;;;;;;3.90;2.20;;;;;;;;;;5013872;28;20026;-70
2023/07/27 11:09:29;;;;;;;6.78;2.20;;;;;;;;;;5014261;28;20022;-71
2023/07/27 11:12:00;;;;;;;7.20;2.25;;;;;;;;;;5014181;28;20041;-72
2023/07/27 11:14:27;;;;;;;4.80;2.10;;;;;;;;;;5016145;28;20018;-72
2023/07/27 11:16:53;;;;;;;3.55;2.03;;;;;;;;;;5019832;28;20481;-72
2023/07/27 11:19:19;;;;;;;2.50;2.00;;;;;;;;;;5017642;28;20056;-72
2023/07/27 11:21:45;;;;;;;3.13;2.00;;;;;;;;;;5014195;28;20319;-72
2023/07/27 11:24:11;;;;;;;5.15;2.05;;;;;;;;;;5013373;28;20017;-73
2023/07/27 11:26:38;;;;;;;3.63;1.98;;;;;;;;;;5012210;28;20025;-72
2023/07/27 11:29:05;;;;;;;4.68;2.13;;;;;;;;;;5011806;28;20061;-72
2023/07/27 11:31:31;;;;;;;4.03;1.80;;;;;;;;;;5003072;23;20034;-72
2023/07/27 11:33:58;;;;;;;3.80;2.00;;;;;;;;;;4990856;28;20029;-73
2023/07/27 11:36:27;;;;;;;9.07;2.72;;;;;;;;;;4991274;28;20096;-73
2023/07/27 11:38:54;;;;;;;4.20;2.22;;;;;;;;;;4992031;28;20038;-73
2023/07/27 11:41:20;;;;;;;3.42;2.10;;;;;;;;;;5007767;28;20036;-74
2023/07/27 11:43:50;;;;;;;4.00;2.15;;;;;;;;;;5013920;28;20501;-74
2023/07/27 11:46:16;;;;;;;3.78;1.98;;;;;;;;;;5014179;28;20405;-73
2023/07/27 11:48:42;;;;;;;3.85;1.60;;;;;;;;;;5013781;28;20029;-73
2023/07/27 11:51:08;;;;;;;2.60;1.90;;;;;;;;;;5015374;28;20453;-73
2023/07/27 11:53:34;;;;;;;1.90;1.70;;;;;;;;;;5014496;28;20021;-73
2023/07/27 11:56:00;;;;;;;3.83;1.90;;;;;;;;;;5017700;28;20041;-73
2023/07/27 11:58:27;;;;;;;2.60;1.73;;;;;;;;;;5014378;28;20018;-73
2023/07/27 12:00:54;;;;;;;2.72;2.08;;;;;;;;;;5012243;28;20026;-74
2023/07/27 12:03:21;;;;;;;5.93;2.15;;;;;;;;;;5013731;28;20029;-73
2023/07/27 12:05:47;;;;;;;3.45;1.90;;;;;;;;;;5013547;28;20038;-73
2023/07/27 12:08:18;;;;;;;4.68;2.33;;;;;;;;;;5013301;28;20036;-73
2023/07/27 12:10:59;;;;;;;3.05;2.22;;;;;;;;;;5011868;28;20084;-73
2023/07/27 12:13:26;;;;;;;4.53;1.67;;;;;;;;;;5013542;28;20540;-73
2023/07/27 12:15:59;;;;;;;5.47;1.90;;;;;;;;;;5013759;28;20030;-73
2023/07/27 12:18:26;;;;;;;2.70;1.88;;;;;;;;;;5013937;28;20026;-74
2023/07/27 12:20:53;;;;;;;3.28;2.35;;;;;;;;;;5014188;28;20029;-73
2023/07/27 12:23:19;;;;;;;3.85;1.80;;;;;;;;;;5013809;28;20033;-73
2023/07/27 12:25:45;;;;;;;6.90;2.30;;;;;;;;;;5014119;28;20478;-73
2023/07/27 12:28:11;;;;;;;2.55;2.13;;;;;;;;;;5012970;28;20046;-73
2023/07/27 12:30:37;;;;;;;2.60;1.90;;;;;;;;;;5012051;28;20038;-73
2023/07/27 12:33:03;;;;;;;3.20;2.05;;;;;;;;;;5012762;28;20486;-74
2023/07/27 12:35:29;;;;;;;4.03;2.17;;;;;;;;;;5007449;28;20553;-73
2023/07/27 12:37:55;;;;;;;2.63;1.88;;;;;;;;;;5008696;28;20109;-73
2023/07/27 12:40:21;;;;;;;2.78;2.13;;;;;;;;;;5012633;28;20521;-73
2023/07/27 12:42:48;;;;;;;5.10;2.10;;;;;;;;;;5013019;28;20026;-74
2023/07/27 12:45:14;;;;;;;4.60;2.00;;;;;;;;;;5004220;28;20033;-73
2023/07/27 12:47:42;;;;;;;3.13;2.15;;;;;;;;;;5010803;28;20018;-73
2023/07/27 12:50:09;;;;;;;4.35;2.30;;;;;;;;;;5002899;28;20023;-73
2023/07/27 12:52:35;;;;;;;4.13;2.53;;;;;;;;;;5003067;28;20010;-75
2023/07/27 12:55:01;;;;;;;2.58;2.05;;;;;;;;;;5012538;28;20361;-74
2023/07/27 12:57:27;;;;;;;4.70;2.05;;;;;;;;;;5012745;28;20026;-74
2023/07/27 12:59:53;;;;;;;2.97;2.03;;;;;;;;;;5013620;28;20041;-75
2023/07/27 13:02:19;;;;;;;3.47;2.40;;;;;;;;;;5014054;28;20038;-74
2023/07/27 13:04:45;;;;;;;3.30;2.33;;;;;;;;;;5014438;28;20044;-75
2023/07/27 13:07:13;;;;;;;7.07;2.70;;;;;;;;;;5013737;28;20397;-73
2023/07/27 13:09:39;;;;;;;4.03;2.60;;;;;;;;;;5014143;28;20025;-74
2023/07/27 13:12:06;;;;;;;5.95;2.78;;;;;;;;;;5012354;28;20022;-73
2023/07/27 13:14:32;;;;;;;4.22;2.60;;;;;;;;;;5012498;28;20022;-74
2023/07/27 13:16:58;;;;;;;4.60;2.88;;;;;;;;;;5011650;28;20033;-73
2023/07/27 13:19:24;;;;;;;5.43;2.80;;;;;;;;;;5012204;28;20033;-74
2023/07/27 13:21:50;;;;;;;4.55;2.92;;;;;;;;;;5012029;28;20092;-73
2023/07/27 13:24:16;;;;;;;6.05;3.25;;;;;;;;;;5012070;28;20629;-74
2023/07/27 13:26:42;;;;;;;5.90;2.75;;;;;;;;;;5011738;28;20026;-73
2023/07/27 13:29:08;;;;;;;4.03;2.88;;;;;;;;;;5011892;28;20029;-73
2023/07/27 13:31:34;;;;;;;7.47;2.83;;;;;;;;;;5011651;28;20034;-73
2023/07/27 13:34:00;;;;;;;3.90;2.65;;;;;;;;;;5012104;28;20021;-73
2023/07/27 13:36:26;;;;;;;5.32;3.00;;;;;;;;;;5012459;28;20422;-73
2023/07/27 13:38:52;;;;;;;3.55;3.08;;;;;;;;;;5012346;28;20018;-74
2023/07/27 13:41:18;;;;;;;4.65;3.28;;;;;;;;;;5010798;28;20504;-74
2023/07/27 13:43:44;;;;;;;4.57;2.95;;;;;;;;;;5011824;28;20030;-73
2023/07/27 13:46:10;;;;;;;5.22;3.22;;;;;;;;;;5011671;28;20053;-73
2023/07/27 13:48:36;;;;;;;4.32;2.90;;;;;;;;;;5010712;28;20030;-74
2023/07/27 13:51:02;;;;;;;4.88;3.47;;;;;;;;;;5011643;28;20025;-74
2023/07/27 13:53:28;;;;;;;6.38;3.80;;;;;;;;;;5012194;28;20076;-73
2023/07/27 13:55:54;;;;;;;7.55;4.63;;;;;;;;;;5011432;28;20505;-74
2023/07/27 13:58:20;;;;;;;6.40;4.25;;;;;;;;;;5011566;28;20409;-74
2023/07/27 14:00:46;;;;;;;4.82;3.70;;;;;;;;;;5011593;28;20030;-73
2023/07/27 14:03:14;;;;;;;4.38;3.55;;;;;;;;;;5011669;28;20018;-74
2023/07/27 14:05:40;;;;;;;5.75;4.07;;;;;;;;;;5010094;28;20088;-74
2023/07/27 14:08:06;;;;;;;6.28;3.88;;;;;;;;;;5011134;28;20029;-74
2023/07/27 14:10:32;;;;;;;4.05;3.38;;;;;;;;;;5026696;28;20022;-73
2023/07/27 14:12:58;;;;;;;16.48;3.83;;;;;;;;;;5011614;28;20026;-73
2023/07/27 14:15:24;;;;;;;4.63;3.00;;;;;;;;;;5011315;28;20022;-73
2023/07/27 14:17:50;;;;;;;5.28;3.10;;;;;;;;;;5012062;28;20405;-74
2023/07/27 14:20:16;;;;;;;7.63;3.88;;;;;;;;;;5011709;28;20026;-74
2023/07/27 14:22:42;;;;;;;5.03;3.05;;;;;;;;;;5010739;28;20486;-73
2023/07/27 14:25:08;;;;;;;6.00;3.05;;;;;;;;;;5011503;28;20030;-73
2023/07/27 14:27:34;;;;;;;4.57;2.55;;;;;;;;;;5011576;28;20072;-73